Decoded Metar for EHEH (EINDHOVEN in NETHERLANDS) (IATA:EIN) | Meteo·Mobile Aviation Weather
aviador You're here:

EHEH Decoded Metar

EINDHOVEN in NETHERLANDS
Report Time2018-11-19 02:55:00
UTC Time2018-11-19 03:11:56
Flight Rules mvfr MVFR
Wind020° at 09 kt
W.Decomp.*RWY 04: 8.5 kt HW 3.1 kt LCW
W.Rank020° ranks 20
Current wind is above 020° avg. (5.6)
Visibility7000 m
Phenomena:Mist
Clouds:Few 007 Hf
Broken 180 Hf
Expected CloudBase > 400 ft AGL from Temp-Dew spread
Ceiling18,000 ft
Temp02°C (ISA -13)
Dew Point01°C (93% RH)
AAT-3.1°C
QNH1023 hPa
Density Alt-1,742 ft
Elevation72 ft
Report Wrong Elevation
Raw Report
METAR EHEH 190255Z AUTO 02009KT 7000 BR FEW007 BKN180 02/01 Q1023 WHT=

Extra information for EHEH:More info

Metar Taf Metar & Taf Last 4 Metars F.Rules Stats Wind Profile Meteogram Temp Stats Airport Information Weather charts Add Link Nearby VenuesMetar ALERT Operation Metar Decoded Social comments